createdAt,value
2022-12-08T00:01:25.549Z,0.30
2022-12-08T00:03:53.027Z,0.20
2022-12-08T00:06:49.194Z,0.30
2022-12-08T00:09:23.779Z,0.30
2022-12-08T00:11:52.909Z,0.30
2022-12-08T00:14:20.586Z,0.40
2022-12-08T00:16:47.658Z,0.40
2022-12-08T00:19:14.605Z,0.40
2022-12-08T00:21:41.508Z,0.50
2022-12-08T00:24:08.908Z,0.50
2022-12-08T00:26:37.106Z,0.50
2022-12-08T00:29:04.308Z,0.50
2022-12-08T00:31:31.259Z,0.40
2022-12-08T00:33:58.771Z,0.50
2022-12-08T00:36:25.759Z,0.50
2022-12-08T00:38:52.628Z,0.70
2022-12-08T00:41:44.591Z,0.70
2022-12-08T00:44:14.590Z,0.70
2022-12-08T00:46:42.283Z,0.70
2022-12-08T00:49:09.165Z,0.70
2022-12-08T00:51:36.153Z,0.80
2022-12-08T00:54:04.245Z,0.80
2022-12-08T00:56:31.398Z,0.80
2022-12-08T00:58:58.391Z,0.80
2022-12-08T01:01:25.501Z,0.80
2022-12-08T01:03:52.991Z,0.80
2022-12-08T01:06:20.013Z,0.80
2022-12-08T01:08:47.016Z,0.80
2022-12-08T01:11:16.534Z,0.80
2022-12-08T01:13:44.123Z,0.80
2022-12-08T01:16:18.815Z,0.70
2022-12-08T01:18:45.745Z,0.70
2022-12-08T01:21:12.668Z,0.60
2022-12-08T01:23:39.505Z,0.60
2022-12-08T01:26:08.366Z,0.50
2022-12-08T01:28:35.334Z,0.50
2022-12-08T01:31:02.739Z,0.40
2022-12-08T01:33:30.291Z,0.40
2022-12-08T01:35:57.274Z,0.40
2022-12-08T01:38:24.114Z,0.50
2022-12-08T01:40:50.949Z,0.50
2022-12-08T01:43:20.271Z,0.50
2022-12-08T01:45:47.934Z,0.50
2022-12-08T01:48:27.278Z,0.40
2022-12-08T01:50:55.883Z,0.30
2022-12-08T01:53:32.906Z,0.30
2022-12-08T01:56:06.612Z,0.30
2022-12-08T01:58:38.051Z,0.20
2022-12-08T02:01:05.108Z,0.20
2022-12-08T02:03:37.426Z,0.20
2022-12-08T02:06:04.567Z,0.20
2022-12-08T02:08:32.836Z,0.10
2022-12-08T02:10:59.710Z,0.10
2022-12-08T02:13:26.712Z,0.10
2022-12-08T02:15:56.651Z,0.10
2022-12-08T02:18:35.433Z,0.00
2022-12-08T02:21:18.169Z,-0.10
2022-12-08T02:23:50.889Z,-0.10
2022-12-08T02:26:42.055Z,-0.10
2022-12-08T02:29:43.140Z,-0.10
2022-12-08T02:32:47.630Z,0.00
2022-12-08T02:35:42.381Z,0.00
2022-12-08T02:38:34.875Z,0.10
2022-12-08T02:41:22.716Z,0.10
2022-12-08T02:43:54.038Z,0.00
2022-12-08T02:46:48.915Z,-0.10
2022-12-08T02:49:16.822Z,-0.10
2022-12-08T02:51:43.734Z,0.00
2022-12-08T02:54:11.080Z,0.10
2022-12-08T02:56:55.295Z,0.10
2022-12-08T02:59:56.463Z,0.20
2022-12-08T03:02:44.537Z,0.20
2022-12-08T03:05:32.955Z,0.30
2022-12-08T03:08:07.915Z,0.30
2022-12-08T03:10:52.895Z,0.40
2022-12-08T03:13:38.711Z,0.30
2022-12-08T03:16:09.662Z,0.40
2022-12-08T03:18:43.945Z,0.40
2022-12-08T03:21:13.986Z,0.50
2022-12-08T03:23:44.865Z,0.40
2022-12-08T03:26:28.822Z,0.50
2022-12-08T03:28:56.104Z,0.60
2022-12-08T03:31:26.960Z,0.50
2022-12-08T03:33:56.950Z,0.50
2022-12-08T03:36:24.195Z,0.50
2022-12-08T03:38:53.540Z,0.50
2022-12-08T03:41:22.684Z,0.40
2022-12-08T03:43:59.435Z,0.50
2022-12-08T03:48:54.936Z,0.40
2022-12-08T03:51:22.540Z,0.50
2022-12-08T03:53:50.138Z,0.60
2022-12-08T03:56:30.809Z,0.50
2022-12-08T03:58:58.164Z,0.50
2022-12-08T04:01:25.522Z,0.60
2022-12-08T04:03:52.832Z,0.70
2022-12-08T04:06:20.656Z,0.80
2022-12-08T04:08:48.300Z,0.90
2022-12-08T04:11:15.439Z,1.00
2022-12-08T04:13:42.696Z,1.00
2022-12-08T04:16:14.657Z,1.10
2022-12-08T04:18:41.577Z,1.10
2022-12-08T04:21:08.430Z,1.00
2022-12-08T04:23:35.294Z,1.00
2022-12-08T04:26:02.146Z,0.90
2022-12-08T04:28:29.584Z,0.90
2022-12-08T04:30:56.700Z,1.00
2022-12-08T04:33:24.187Z,1.00
2022-12-08T04:35:51.079Z,1.10
2022-12-08T04:38:18.050Z,1.10
2022-12-08T04:40:44.957Z,1.20
2022-12-08T04:43:11.811Z,1.20
2022-12-08T04:45:42.789Z,1.20
2022-12-08T04:48:12.720Z,1.20
2022-12-08T04:50:41.889Z,1.20
2022-12-08T04:53:10.394Z,1.20
2022-12-08T04:55:44.995Z,1.30
2022-12-08T04:58:17.495Z,1.30
2022-12-08T05:00:44.801Z,1.30
2022-12-08T05:03:12.022Z,1.40
2022-12-08T05:05:38.889Z,1.40
2022-12-08T05:08:06.737Z,1.40
2022-12-08T05:10:33.683Z,1.40
2022-12-08T05:13:00.923Z,1.40
2022-12-08T05:15:28.219Z,1.40
2022-12-08T05:17:55.203Z,1.40
2022-12-08T05:20:22.407Z,1.30
2022-12-08T05:22:49.312Z,1.30
2022-12-08T05:25:16.271Z,1.40
2022-12-08T05:27:43.554Z,1.40
2022-12-08T05:30:11.190Z,1.40
2022-12-08T05:32:38.141Z,1.40
2022-12-08T05:35:05.318Z,1.40
2022-12-08T05:37:32.223Z,1.30
2022-12-08T05:39:59.123Z,1.40
2022-12-08T05:42:26.000Z,1.40
2022-12-08T05:44:53.228Z,1.40
2022-12-08T05:47:20.114Z,1.40
2022-12-08T05:49:47.113Z,1.40
2022-12-08T05:52:14.076Z,1.30
2022-12-08T05:54:40.950Z,1.40
2022-12-08T05:57:07.798Z,1.50
2022-12-08T05:59:34.771Z,1.50
2022-12-08T06:02:01.733Z,1.60
2022-12-08T06:04:28.681Z,1.60
2022-12-08T06:06:55.834Z,1.70
2022-12-08T06:09:22.736Z,1.70
2022-12-08T06:11:49.624Z,1.80
2022-12-08T06:14:16.514Z,1.80
2022-12-08T06:16:43.441Z,1.80
2022-12-08T06:19:10.428Z,1.80
2022-12-08T06:21:37.282Z,1.80
2022-12-08T06:24:04.236Z,1.80
2022-12-08T06:26:31.092Z,1.80
2022-12-08T06:28:58.025Z,1.80
2022-12-08T06:31:26.677Z,1.80
2022-12-08T06:33:54.950Z,1.80
2022-12-08T06:36:25.913Z,1.90
2022-12-08T06:38:53.001Z,1.90
2022-12-08T06:41:19.872Z,1.90
2022-12-08T06:43:46.973Z,2.00
2022-12-08T06:46:17.172Z,2.00
2022-12-08T06:48:44.473Z,2.00
2022-12-08T06:51:20.516Z,2.00
2022-12-08T06:53:47.658Z,2.00
2022-12-08T06:56:16.016Z,2.00
2022-12-08T06:58:46.180Z,2.00
2022-12-08T07:01:15.877Z,2.00
2022-12-08T07:03:43.700Z,2.10
2022-12-08T07:06:16.005Z,2.20
2022-12-08T07:08:43.034Z,2.20
2022-12-08T07:11:12.428Z,2.20
2022-12-08T07:13:42.239Z,2.30
2022-12-08T07:16:11.316Z,2.30
2022-12-08T07:18:38.697Z,2.30
2022-12-08T07:21:11.474Z,2.40
2022-12-08T07:23:39.092Z,2.50
2022-12-08T07:26:08.474Z,2.50
2022-12-08T07:28:37.612Z,2.50
2022-12-08T07:31:05.962Z,2.50
2022-12-08T07:33:34.025Z,2.40
2022-12-08T07:36:03.518Z,2.50
2022-12-08T07:38:31.410Z,2.50
2022-12-08T07:40:58.483Z,2.60
2022-12-08T07:43:25.329Z,2.60
2022-12-08T07:45:52.342Z,2.70
2022-12-08T07:48:19.320Z,2.70
2022-12-08T07:50:47.491Z,2.80
2022-12-08T07:53:14.509Z,2.90
2022-12-08T07:55:43.307Z,3.00
2022-12-08T07:58:11.503Z,3.00
2022-12-08T08:00:38.783Z,3.10
2022-12-08T08:03:06.264Z,3.10
2022-12-08T08:05:33.245Z,3.20
2022-12-08T08:08:00.315Z,3.30
2022-12-08T08:10:27.347Z,3.40
2022-12-08T08:12:54.337Z,3.50
2022-12-08T08:15:21.480Z,3.70
2022-12-08T08:17:51.686Z,4.00
2022-12-08T08:20:19.670Z,4.20
2022-12-08T08:22:50.800Z,4.40
2022-12-08T08:25:19.464Z,4.50
2022-12-08T08:27:46.927Z,4.60
2022-12-08T08:30:19.904Z,4.80
2022-12-08T08:32:48.753Z,4.80
2022-12-08T08:35:15.676Z,4.80
2022-12-08T08:37:48.343Z,4.90
2022-12-08T08:40:16.172Z,5.00
2022-12-08T08:42:43.031Z,5.00
2022-12-08T08:45:10.313Z,5.10
2022-12-08T08:47:37.176Z,5.20
2022-12-08T08:50:04.816Z,5.30
2022-12-08T08:52:31.929Z,5.30
2022-12-08T08:54:58.788Z,5.40
2022-12-08T08:57:26.303Z,5.50
2022-12-08T08:59:54.114Z,5.60
2022-12-08T09:02:21.641Z,5.60
2022-12-08T09:04:48.681Z,5.70
2022-12-08T09:07:16.155Z,5.70
2022-12-08T09:09:43.499Z,5.70
2022-12-08T09:12:11.685Z,5.80
2022-12-08T09:14:38.729Z,5.90
2022-12-08T09:17:08.576Z,5.90
2022-12-08T09:19:35.574Z,5.90
2022-12-08T09:22:02.443Z,5.80
2022-12-08T09:24:29.381Z,5.70
2022-12-08T09:26:56.263Z,5.60
2022-12-08T09:29:23.171Z,5.60
2022-12-08T09:31:50.137Z,5.50
2022-12-08T09:34:17.165Z,5.40
2022-12-08T09:36:44.048Z,5.30
2022-12-08T09:39:12.231Z,5.30
2022-12-08T09:41:50.300Z,5.20
2022-12-08T09:44:42.246Z,5.20
2022-12-08T09:47:36.190Z,5.20
2022-12-08T09:50:37.725Z,5.30
2022-12-08T09:53:21.291Z,5.40
2022-12-08T09:55:59.060Z,5.40
2022-12-08T09:58:33.072Z,5.30
2022-12-08T10:01:00.238Z,5.30
2022-12-08T10:03:29.832Z,5.30
2022-12-08T10:06:15.641Z,5.30
2022-12-08T10:08:53.730Z,5.20
2022-12-08T10:11:31.037Z,5.20
2022-12-08T10:14:16.775Z,5.30
2022-12-08T10:16:49.386Z,5.40
2022-12-08T10:19:22.750Z,5.50
2022-12-08T10:21:50.586Z,5.40
2022-12-08T10:24:44.424Z,5.40
2022-12-08T10:27:12.964Z,5.50
2022-12-08T10:29:41.138Z,5.50
2022-12-08T10:32:18.322Z,5.60
2022-12-08T10:35:08.487Z,5.60
2022-12-08T10:37:35.883Z,5.60
2022-12-08T10:40:09.089Z,5.60
2022-12-08T10:42:39.831Z,5.60
2022-12-08T10:45:09.873Z,5.50
2022-12-08T10:47:43.693Z,5.50
2022-12-08T10:50:29.073Z,5.50
2022-12-08T10:53:02.653Z,5.40
2022-12-08T10:55:39.077Z,5.40
2022-12-08T10:58:06.057Z,5.40
2022-12-08T11:00:33.186Z,5.40
2022-12-08T11:03:03.431Z,5.40
2022-12-08T11:05:35.836Z,5.30
2022-12-08T11:08:05.010Z,5.20
2022-12-08T11:10:44.096Z,5.20
2022-12-08T11:13:23.715Z,5.20
2022-12-08T11:15:51.507Z,5.20
2022-12-08T11:18:23.054Z,5.20
2022-12-08T11:20:58.506Z,5.20
2022-12-08T11:23:27.247Z,5.10
2022-12-08T11:26:01.357Z,5.00
2022-12-08T11:28:29.206Z,5.00
2022-12-08T11:31:13.346Z,5.00
2022-12-08T11:33:42.851Z,5.00
2022-12-08T11:36:14.992Z,5.00
2022-12-08T11:38:46.372Z,5.00
2022-12-08T11:41:24.160Z,5.00
2022-12-08T11:43:55.143Z,5.00
2022-12-08T11:46:36.565Z,5.00
2022-12-08T11:49:10.874Z,4.90
2022-12-08T11:51:50.844Z,4.90
2022-12-08T11:54:30.770Z,4.90
2022-12-08T11:57:00.514Z,4.90
2022-12-08T11:59:44.513Z,5.00
2022-12-08T12:02:17.700Z,5.00
2022-12-08T12:04:57.247Z,5.00
2022-12-08T12:07:43.036Z,5.00
2022-12-08T12:10:19.091Z,5.00
2022-12-08T12:13:23.412Z,5.00
2022-12-08T12:15:56.128Z,5.00
2022-12-08T12:18:46.562Z,5.10
2022-12-08T12:21:34.289Z,5.10
2022-12-08T12:24:07.887Z,5.10
2022-12-08T12:26:39.502Z,5.20
2022-12-08T12:29:15.766Z,5.20
2022-12-08T12:31:50.173Z,5.30
2022-12-08T12:34:24.238Z,5.30
2022-12-08T12:36:53.500Z,5.30
2022-12-08T12:39:25.533Z,5.30
2022-12-08T12:41:58.907Z,5.30
2022-12-08T12:44:39.738Z,5.40
2022-12-08T12:47:12.153Z,5.40
2022-12-08T12:49:45.918Z,5.50
2022-12-08T12:52:15.495Z,5.40
2022-12-08T12:54:44.272Z,5.40
2022-12-08T12:57:11.089Z,5.40
2022-12-08T12:59:46.978Z,5.40
2022-12-08T13:02:37.989Z,5.40
2022-12-08T13:05:07.977Z,5.30
2022-12-08T13:07:42.094Z,5.30
2022-12-08T13:10:20.373Z,5.30
2022-12-08T13:13:06.468Z,5.30
2022-12-08T13:16:10.012Z,5.30
2022-12-08T13:18:48.740Z,5.20
2022-12-08T13:21:19.799Z,5.10
2022-12-08T13:23:46.749Z,5.10
2022-12-08T13:26:25.722Z,5.00
2022-12-08T13:29:01.712Z,5.00
2022-12-08T13:31:42.563Z,4.90
2022-12-08T13:34:21.453Z,4.90
2022-12-08T13:36:54.452Z,4.90
2022-12-08T13:39:26.869Z,4.80
2022-12-08T13:42:06.301Z,4.80
2022-12-08T13:45:19.043Z,4.70
2022-12-08T13:47:35.760Z,4.70
2022-12-08T13:59:32.706Z,4.70
2022-12-08T14:02:28.199Z,4.70
2022-12-08T14:07:43.822Z,4.70
2022-12-08T14:10:19.615Z,4.70
2022-12-08T14:12:52.053Z,4.70
2022-12-08T14:15:20.094Z,4.70
2022-12-08T14:17:55.672Z,4.70
2022-12-08T14:20:29.628Z,4.70
2022-12-08T14:22:58.990Z,4.70
2022-12-08T14:25:28.159Z,4.70
2022-12-08T14:28:03.881Z,4.60
2022-12-08T14:30:37.177Z,4.60
2022-12-08T14:33:05.265Z,4.60
2022-12-08T14:35:37.303Z,4.60
2022-12-08T14:38:14.240Z,4.60
2022-12-08T14:40:43.969Z,4.60
2022-12-08T14:43:10.935Z,4.50
2022-12-08T14:45:40.643Z,4.50
2022-12-08T14:48:36.522Z,4.50
2022-12-08T14:51:24.213Z,4.40
2022-12-08T14:54:14.124Z,4.40
2022-12-08T14:56:53.106Z,4.40
2022-12-08T14:59:23.065Z,4.40
2022-12-08T15:01:53.067Z,4.40
2022-12-08T15:04:25.778Z,4.40
2022-12-08T15:07:01.857Z,4.40
2022-12-08T15:09:34.656Z,4.40
2022-12-08T15:12:26.707Z,4.30
2022-12-08T15:14:59.693Z,4.40
2022-12-08T15:17:40.854Z,4.40
2022-12-08T15:20:33.160Z,4.40
2022-12-08T15:23:02.853Z,4.30
2022-12-08T15:25:29.982Z,4.20
2022-12-08T15:27:58.061Z,4.20
2022-12-08T15:30:29.864Z,4.30
2022-12-08T15:32:57.449Z,4.30
2022-12-08T15:35:24.403Z,4.40
2022-12-08T15:37:51.357Z,4.40
2022-12-08T15:40:27.320Z,4.30
2022-12-08T15:42:54.301Z,4.40
2022-12-08T15:45:28.712Z,4.50
2022-12-08T15:47:56.469Z,4.50
2022-12-08T15:50:24.046Z,4.40
2022-12-08T15:52:51.199Z,4.30
2022-12-08T15:55:20.519Z,4.30
2022-12-08T15:58:51.329Z,4.30
2022-12-08T16:00:55.048Z,4.20
2022-12-08T16:04:19.970Z,4.20
2022-12-08T16:09:14.139Z,4.20
2022-12-08T16:12:09.431Z,4.20
2022-12-08T16:17:27.070Z,4.40
2022-12-08T16:19:54.893Z,4.50
2022-12-08T16:25:18.736Z,4.50
2022-12-08T16:28:01.417Z,4.60
2022-12-08T16:30:30.474Z,4.50
2022-12-08T16:32:57.654Z,4.50
2022-12-08T16:35:24.539Z,4.40
2022-12-08T16:37:51.517Z,4.30
2022-12-08T16:40:18.599Z,4.30
2022-12-08T16:42:50.370Z,4.30
2022-12-08T16:45:23.925Z,4.30
2022-12-08T16:47:55.178Z,4.30
2022-12-08T16:50:27.909Z,4.20
2022-12-08T16:53:01.234Z,4.20
2022-12-08T16:55:28.212Z,4.10
2022-12-08T16:57:55.674Z,4.10
2022-12-08T17:00:25.867Z,4.20
2022-12-08T17:02:53.287Z,4.20
2022-12-08T17:05:22.460Z,4.30
2022-12-08T17:07:51.676Z,4.30
2022-12-08T17:10:25.283Z,4.40
2022-12-08T17:12:52.810Z,4.50
2022-12-08T17:15:22.859Z,4.50
2022-12-08T17:17:49.852Z,4.50
2022-12-08T17:20:20.512Z,4.60
2022-12-08T17:22:48.952Z,4.60
2022-12-08T17:25:16.542Z,4.60
2022-12-08T17:27:43.726Z,4.70
2022-12-08T17:30:16.021Z,4.70
2022-12-08T17:32:43.456Z,4.60
2022-12-08T17:35:11.103Z,4.60
2022-12-08T17:37:38.519Z,4.50
2022-12-08T17:40:06.867Z,4.40
2022-12-08T17:42:34.237Z,4.40
2022-12-08T17:45:04.622Z,4.40
2022-12-08T17:47:31.867Z,4.40
2022-12-08T17:49:59.038Z,4.40
2022-12-08T17:52:26.015Z,4.50
2022-12-08T17:54:53.455Z,4.50
2022-12-08T17:57:20.762Z,4.50
2022-12-08T17:59:49.200Z,4.50
2022-12-08T18:02:19.429Z,4.50
2022-12-08T18:04:47.978Z,4.50
2022-12-08T18:07:15.122Z,4.40
2022-12-08T18:09:42.348Z,4.40
2022-12-08T18:12:09.282Z,4.40
2022-12-08T18:14:37.594Z,4.40
2022-12-08T18:17:05.009Z,4.40
2022-12-08T18:19:32.011Z,4.30
2022-12-08T18:21:59.359Z,4.40
2022-12-08T18:24:26.614Z,4.40
2022-12-08T18:26:55.740Z,4.30
2022-12-08T18:29:23.884Z,4.30
2022-12-08T18:31:52.416Z,4.30
2022-12-08T18:34:20.167Z,4.30
2022-12-08T18:36:47.872Z,4.30
2022-12-08T18:39:28.189Z,4.30
2022-12-08T18:41:56.476Z,4.20
2022-12-08T18:44:24.593Z,4.20
2022-12-08T18:46:52.102Z,4.20
2022-12-08T18:49:20.685Z,4.20
2022-12-08T18:51:48.734Z,4.10
2022-12-08T18:54:16.261Z,4.10
2022-12-08T18:56:43.828Z,4.10
2022-12-08T18:59:12.945Z,4.20
2022-12-08T19:01:41.060Z,4.10
2022-12-08T19:06:58.290Z,4.00
2022-12-08T19:09:27.332Z,4.00
2022-12-08T19:11:55.412Z,4.00
2022-12-08T19:14:27.836Z,4.00
2022-12-08T19:16:55.539Z,4.00
2022-12-08T19:19:22.995Z,3.90
2022-12-08T19:21:50.546Z,3.90
2022-12-08T19:24:18.401Z,3.90
2022-12-08T19:26:55.367Z,4.00
2022-12-08T19:29:23.203Z,3.90
2022-12-08T19:31:50.993Z,3.90
2022-12-08T19:34:19.075Z,3.90
2022-12-08T19:36:46.371Z,3.90
2022-12-08T19:39:38.000Z,4.00
2022-12-08T19:42:34.667Z,4.00
2022-12-08T19:45:07.825Z,4.00
2022-12-08T19:47:35.824Z,4.00
2022-12-08T19:50:21.684Z,3.90
2022-12-08T19:52:49.295Z,3.90
2022-12-08T19:55:17.393Z,3.90
2022-12-08T19:57:45.019Z,3.90
2022-12-08T20:00:14.144Z,4.00
2022-12-08T20:02:42.228Z,3.90
2022-12-08T20:05:12.119Z,3.90
2022-12-08T20:07:40.211Z,3.90
2022-12-08T20:10:15.191Z,3.90
2022-12-08T20:12:42.536Z,4.00
2022-12-08T20:15:13.803Z,4.00
2022-12-08T20:17:43.299Z,4.00
2022-12-08T20:20:12.968Z,4.00
2022-12-08T20:22:41.043Z,4.00
2022-12-08T20:25:12.700Z,3.90
2022-12-08T20:27:41.033Z,4.00
2022-12-08T20:30:15.037Z,4.00
2022-12-08T20:32:46.497Z,3.90
2022-12-08T20:35:16.206Z,3.90
2022-12-08T20:37:43.892Z,3.80
2022-12-08T20:40:11.751Z,3.80
2022-12-08T20:42:39.446Z,3.80
2022-12-08T20:45:09.596Z,3.80
2022-12-08T20:47:38.424Z,3.70
2022-12-08T20:50:08.594Z,3.80
2022-12-08T20:52:38.304Z,3.80
2022-12-08T20:55:06.954Z,3.80
2022-12-08T20:57:34.999Z,3.70
2022-12-08T21:00:02.972Z,3.70
2022-12-08T21:02:33.375Z,3.80
2022-12-08T21:05:01.173Z,3.80
2022-12-08T21:07:28.450Z,3.90
2022-12-08T21:09:55.731Z,3.90
2022-12-08T21:12:23.087Z,4.00
2022-12-08T21:14:50.899Z,4.10
2022-12-08T21:17:18.281Z,4.10
2022-12-08T21:19:45.362Z,4.00
2022-12-08T21:22:13.776Z,4.10
2022-12-08T21:24:40.976Z,4.00
2022-12-08T21:27:08.155Z,4.00
2022-12-08T21:29:35.211Z,4.10
2022-12-08T21:32:02.384Z,4.10
2022-12-08T21:34:34.357Z,4.30
2022-12-08T21:37:02.473Z,4.30
2022-12-08T21:39:29.903Z,4.20
2022-12-08T21:42:16.851Z,4.30
2022-12-08T21:44:44.144Z,4.20
2022-12-08T21:47:12.762Z,4.20
2022-12-08T21:49:39.770Z,4.20
2022-12-08T21:52:06.972Z,4.00
2022-12-08T21:54:34.060Z,4.00
2022-12-08T21:57:01.059Z,3.90
2022-12-08T21:59:28.201Z,3.90
2022-12-08T22:01:55.730Z,3.90
2022-12-08T22:04:24.655Z,3.90
2022-12-08T22:06:52.678Z,4.00
2022-12-08T22:09:20.166Z,4.00
2022-12-08T22:11:47.633Z,4.00
2022-12-08T22:14:15.427Z,3.90
2022-12-08T22:16:44.001Z,4.00
2022-12-08T22:19:12.228Z,4.00
2022-12-08T22:21:39.513Z,4.00
2022-12-08T22:24:06.777Z,4.10
2022-12-08T22:26:34.101Z,4.10
2022-12-08T22:29:01.716Z,4.10
2022-12-08T22:31:28.802Z,4.10
2022-12-08T22:33:56.246Z,4.00
2022-12-08T22:36:26.136Z,4.10
2022-12-08T22:38:54.344Z,4.10
2022-12-08T22:41:22.363Z,4.10
2022-12-08T22:43:50.324Z,4.20
2022-12-08T22:46:19.993Z,4.30
2022-12-08T22:48:47.943Z,4.30
2022-12-08T22:51:15.822Z,4.40
2022-12-08T22:53:43.295Z,4.40
2022-12-08T22:56:12.687Z,4.40
2022-12-08T22:58:40.304Z,4.40
2022-12-08T23:01:08.604Z,4.40
2022-12-08T23:03:35.874Z,4.40
2022-12-08T23:06:12.447Z,4.40
2022-12-08T23:08:39.883Z,4.30
2022-12-08T23:11:06.919Z,4.40
2022-12-08T23:13:34.182Z,4.30
2022-12-08T23:16:01.203Z,4.20
2022-12-08T23:18:28.104Z,4.20
2022-12-08T23:20:55.185Z,4.20
2022-12-08T23:23:22.332Z,4.20
2022-12-08T23:25:49.344Z,4.20
2022-12-08T23:28:16.224Z,4.30
2022-12-08T23:30:43.171Z,4.20
2022-12-08T23:33:10.564Z,4.20
2022-12-08T23:35:37.609Z,4.20
2022-12-08T23:38:05.093Z,4.20
2022-12-08T23:40:31.979Z,4.20
2022-12-08T23:42:58.857Z,4.20
2022-12-08T23:45:26.099Z,4.30
2022-12-08T23:47:53.175Z,4.20
2022-12-08T23:50:20.177Z,4.30
2022-12-08T23:52:47.319Z,4.20
2022-12-08T23:55:14.225Z,4.20
2022-12-08T23:57:41.127Z,4.20
